Terminal Aerodrome Forecast
Issued by NWS Wilmington, OH

Current Version | Previous Version | Graphics & Text | Print | Product List | Glossary On
Versions: 1 2 3 4 5 6 7 8 9 10 11 12 13 14 15 16 17 18 19
626
FTUS41 KILN 241727
TAFDAY
TAF
KDAY 241727Z 2418/2518 09009KT 3SM -SHRA BR BKN008 OVC012
     FM250000 01007KT 4SM BR VCSH OVC008
      TEMPO 2508/2512 OVC004
     FM251700 33010KT P6SM BKN018=

USA.gov is the U.S. government's official web portal to all federal, state and local government web resources and services.